Pagina principale
METAR-TAF:

METAR-TAF

Aeroporti :

Aeroporto di Bergamo-Orio al Serio

Bergamo, Italia

latitudine: 45-40N, longitudine: 009-42E, altezza: 238 m

Osservazione

Il bollettino è stato emesso 23 minuti fa, alle 09:20 UTC
Vento 3 kt da direzioni variabili
Temperature 10°C
Umidità 50%
Pressione 1016 hPa
Visibilità: 8000 m

METAR: LIME 090920Z VRB03KT 8000 NSC 10/00 Q1016 NOSIG

Ora: 10:43 (09:43 UTC)

Previsione

Il bollettino è stato emesso 4 ore e 43 minuti fa, alle 05:00 UTC
Previsione valida dal 09 alle 06 UTC al 10 alle 06 UTC
Vento 4 kt da direzioni variabili
Visibilità 10 km o più
Nuvoloso ad un'altezza di 6000 ft

TAF: LIME 090500Z 0906/1006 VRB04KT 9999 BKN060

Osservazioni e previsioni meteorologiche di più di 4000 aeroporti (messaggi METAR e TAF).

Le stazioni disponibili sono rappresentate dai dischi gialli e rossi sulla carta.

Puntare il mouse per vedere il nome della stazione.

Clicca sopra per visualizzare le osservazioni e previsioni meteorologiche.

Per cambiare la mappa : fare clic sui pulsanti verdi con una croce nera per ingrandire, il pulsante verde con un trattino per diminuire, o sulla freccia verde per le mappe adiacenti.


METAR-TAF: